createdAt,value
2017-08-23T00:00:20.588Z,5.93
2017-08-23T00:02:48.135Z,5.73
2017-08-23T00:05:15.688Z,5.53
2017-08-23T00:07:43.241Z,6.20
2017-08-23T00:10:10.802Z,6.67
2017-08-23T00:12:38.345Z,6.50
2017-08-23T00:15:06.022Z,7.07
2017-08-23T00:17:33.585Z,6.13
2017-08-23T00:20:01.113Z,5.73
2017-08-23T00:22:28.653Z,6.13
2017-08-23T00:24:56.211Z,6.67
2017-08-23T00:27:23.732Z,7.00
2017-08-23T00:29:51.389Z,5.53
2017-08-23T00:32:18.917Z,5.60
2017-08-23T00:34:46.456Z,6.03
2017-08-23T00:37:14.020Z,7.93
2017-08-23T00:39:41.589Z,6.43
2017-08-23T00:42:09.110Z,6.43
2017-08-23T00:44:36.700Z,5.73
2017-08-23T00:47:04.284Z,5.43
2017-08-23T00:49:31.844Z,6.10
2017-08-23T00:51:59.368Z,5.40
2017-08-23T00:54:26.892Z,5.93
2017-08-23T00:56:54.455Z,6.97
2017-08-23T00:59:22.052Z,6.13
2017-08-23T01:01:49.650Z,5.50
2017-08-23T01:04:17.155Z,5.80
2017-08-23T01:06:44.675Z,5.70
2017-08-23T01:09:12.291Z,6.80
2017-08-23T01:11:39.811Z,6.20
2017-08-23T01:14:07.430Z,6.00
2017-08-23T01:16:35.025Z,6.33
2017-08-23T01:19:02.544Z,6.13
2017-08-23T01:21:30.082Z,6.60
2017-08-23T01:23:57.852Z,6.37
2017-08-23T01:26:25.429Z,6.10
2017-08-23T01:28:52.955Z,7.07
2017-08-23T01:31:20.507Z,5.77
2017-08-23T01:33:48.044Z,6.73
2017-08-23T01:36:15.630Z,7.03
2017-08-23T01:38:43.296Z,6.10
2017-08-23T01:41:10.855Z,6.70
2017-08-23T01:43:38.377Z,5.87
2017-08-23T01:46:05.896Z,6.37
2017-08-23T01:48:33.543Z,6.13
2017-08-23T01:51:01.185Z,7.43
2017-08-23T01:53:28.745Z,5.83
2017-08-23T01:55:56.276Z,6.63
2017-08-23T01:58:23.827Z,7.37
2017-08-23T02:00:51.388Z,7.10
2017-08-23T02:03:18.909Z,7.03
2017-08-23T02:05:46.489Z,7.97
2017-08-23T02:08:14.039Z,6.50
2017-08-23T02:10:41.662Z,8.07
2017-08-23T02:13:09.248Z,7.30
2017-08-23T02:15:36.764Z,6.63
2017-08-23T02:18:04.373Z,7.30
2017-08-23T02:20:31.931Z,6.47
2017-08-23T02:22:59.451Z,7.43
2017-08-23T02:25:27.021Z,8.10
2017-08-23T02:27:54.620Z,7.17
2017-08-23T02:30:22.173Z,7.37
2017-08-23T02:32:49.724Z,7.33
2017-08-23T02:35:17.245Z,7.60
2017-08-23T02:37:44.930Z,6.17
2017-08-23T02:40:12.492Z,6.27
2017-08-23T02:42:40.004Z,7.20
2017-08-23T02:45:07.566Z,7.13
2017-08-23T02:47:35.155Z,7.50
2017-08-23T02:50:02.690Z,6.37
2017-08-23T02:52:30.232Z,7.87
2017-08-23T02:54:57.872Z,6.77
2017-08-23T02:57:25.381Z,7.40
2017-08-23T02:59:52.920Z,6.30
2017-08-23T03:02:20.485Z,7.17
2017-08-23T03:04:48.003Z,6.43
2017-08-23T03:07:15.565Z,6.97
2017-08-23T03:09:43.167Z,7.00
2017-08-23T03:12:10.696Z,6.97
2017-08-23T03:14:38.356Z,7.40
2017-08-23T03:17:05.893Z,6.47
2017-08-23T03:19:33.475Z,7.10
2017-08-23T03:22:01.164Z,8.07
2017-08-23T03:24:28.723Z,7.13
2017-08-23T03:26:56.255Z,7.17
2017-08-23T03:29:23.861Z,7.90
2017-08-23T03:31:51.385Z,6.37
2017-08-23T03:34:18.907Z,8.20
2017-08-23T03:36:46.561Z,7.63
2017-08-23T03:39:14.103Z,8.20
2017-08-23T03:41:41.641Z,7.90
2017-08-23T03:44:09.201Z,7.97
2017-08-23T03:46:36.743Z,7.43
2017-08-23T03:49:04.316Z,6.63
2017-08-23T03:51:31.849Z,7.50
2017-08-23T03:53:59.372Z,6.80
2017-08-23T03:56:26.933Z,7.90
2017-08-23T03:58:54.481Z,8.03
2017-08-23T04:01:22.004Z,7.23
2017-08-23T04:03:49.560Z,7.43
2017-08-23T04:06:17.120Z,6.57
2017-08-23T04:08:44.653Z,7.77
2017-08-23T04:11:12.176Z,7.57
2017-08-23T04:13:39.746Z,7.60
2017-08-23T04:16:07.261Z,8.03
2017-08-23T04:18:34.784Z,7.50
2017-08-23T04:21:02.361Z,8.23
2017-08-23T04:23:29.944Z,7.40
2017-08-23T04:25:57.498Z,8.10
2017-08-23T04:28:25.137Z,7.77
2017-08-23T04:30:52.740Z,7.97
2017-08-23T04:33:20.288Z,7.07
2017-08-23T04:35:47.868Z,6.90
2017-08-23T04:38:15.773Z,8.27
2017-08-23T04:40:43.296Z,8.20
2017-08-23T04:43:10.839Z,7.07
2017-08-23T04:45:38.396Z,7.43
2017-08-23T04:48:06.019Z,7.90
2017-08-23T04:50:33.562Z,7.20
2017-08-23T04:53:01.120Z,7.07
2017-08-23T04:55:28.689Z,7.90
2017-08-23T04:57:56.537Z,7.90
2017-08-23T05:00:24.341Z,8.53
2017-08-23T05:02:51.865Z,7.60
2017-08-23T05:05:19.375Z,8.53
2017-08-23T05:07:46.943Z,7.93
2017-08-23T05:10:14.468Z,7.90
2017-08-23T05:12:41.996Z,9.60
2017-08-23T05:15:09.570Z,7.77
2017-08-23T05:17:37.145Z,7.63
2017-08-23T05:20:04.700Z,8.33
2017-08-23T05:22:32.220Z,6.70
2017-08-23T05:24:59.812Z,6.90
2017-08-23T05:27:27.349Z,5.80
2017-08-23T05:29:54.924Z,6.33
2017-08-23T05:32:22.484Z,5.60
2017-08-23T05:34:50.065Z,6.50
2017-08-23T05:37:17.576Z,5.23
2017-08-23T05:39:45.132Z,6.23
2017-08-23T05:42:12.653Z,7.17
2017-08-23T05:44:40.292Z,8.13
2017-08-23T05:47:07.839Z,7.07
2017-08-23T05:49:35.393Z,6.70
2017-08-23T05:52:02.972Z,7.00
2017-08-23T05:54:30.505Z,7.00
2017-08-23T05:56:58.077Z,8.20
2017-08-23T05:59:25.648Z,6.30
2017-08-23T06:01:53.165Z,7.03
2017-08-23T06:04:20.680Z,7.57
2017-08-23T06:06:48.306Z,5.90
2017-08-23T06:09:15.884Z,6.10
2017-08-23T06:11:43.425Z,6.00
2017-08-23T06:14:11.024Z,6.33
2017-08-23T06:16:38.580Z,5.00
2017-08-23T06:19:06.108Z,6.07
2017-08-23T06:21:33.709Z,5.07
2017-08-23T06:24:01.272Z,4.70
2017-08-23T06:26:28.816Z,4.80
2017-08-23T06:28:56.377Z,4.90
2017-08-23T06:31:23.900Z,5.97
2017-08-23T06:33:51.469Z,5.67
2017-08-23T06:36:19.011Z,4.70
2017-08-23T06:38:46.519Z,4.53
2017-08-23T06:41:14.068Z,5.23
2017-08-23T06:43:41.671Z,5.63
2017-08-23T06:46:09.256Z,5.50
2017-08-23T06:48:36.803Z,5.40
2017-08-23T06:51:04.357Z,5.30
2017-08-23T06:53:31.918Z,4.80
2017-08-23T06:55:59.469Z,5.70
2017-08-23T06:58:27.026Z,5.87
2017-08-23T07:00:54.564Z,5.67
2017-08-23T07:03:22.144Z,5.57
2017-08-23T07:05:49.676Z,4.73
2017-08-23T07:08:17.207Z,4.97
2017-08-23T07:10:44.772Z,5.17
2017-08-23T07:13:12.312Z,5.43
2017-08-23T07:15:39.836Z,4.43
2017-08-23T07:18:07.780Z,4.33
2017-08-23T07:20:35.284Z,4.70
2017-08-23T07:23:02.833Z,4.60
2017-08-23T07:25:30.421Z,4.20
2017-08-23T07:27:58.003Z,4.27
2017-08-23T07:30:25.613Z,4.60
2017-08-23T07:32:53.123Z,4.90
2017-08-23T07:35:20.675Z,4.60
2017-08-23T07:37:48.192Z,4.67
2017-08-23T07:40:15.736Z,4.90
2017-08-23T07:42:43.253Z,5.07
2017-08-23T07:45:10.891Z,6.13
2017-08-23T07:47:38.411Z,6.97
2017-08-23T07:50:06.032Z,4.70
2017-08-23T07:52:33.551Z,4.20
2017-08-23T07:55:01.096Z,4.70
2017-08-23T07:57:28.661Z,5.10
2017-08-23T07:59:56.172Z,5.00
2017-08-23T08:02:23.776Z,4.33
2017-08-23T08:04:51.300Z,4.63
2017-08-23T08:07:18.825Z,3.77
2017-08-23T08:09:46.393Z,4.30
2017-08-23T08:12:13.919Z,6.07
2017-08-23T08:14:41.632Z,4.00
2017-08-23T08:17:09.158Z,3.23
2017-08-23T08:19:36.734Z,8.20
2017-08-23T08:22:04.276Z,4.00
2017-08-23T08:24:31.864Z,3.70
2017-08-23T08:26:59.417Z,4.30
2017-08-23T08:29:26.996Z,4.50
2017-08-23T08:31:54.556Z,3.73
2017-08-23T08:34:22.128Z,6.00
2017-08-23T08:36:49.663Z,4.13
2017-08-23T08:39:17.215Z,5.10
2017-08-23T08:41:44.796Z,3.53
2017-08-23T08:44:12.323Z,5.70
2017-08-23T08:46:39.883Z,4.07
2017-08-23T08:49:07.460Z,4.60
2017-08-23T08:51:35.049Z,4.53
2017-08-23T08:54:02.609Z,4.27
2017-08-23T08:56:30.192Z,3.80
2017-08-23T08:58:57.735Z,5.90
2017-08-23T09:01:25.281Z,3.20
2017-08-23T09:03:52.856Z,3.80
2017-08-23T09:06:20.396Z,7.00
2017-08-23T09:08:47.955Z,5.80
2017-08-23T09:11:15.505Z,5.33
2017-08-23T09:13:43.067Z,4.40
2017-08-23T09:16:10.723Z,7.80
2017-08-23T09:18:38.256Z,5.60
2017-08-23T09:21:05.801Z,5.60
2017-08-23T09:23:33.348Z,7.00
2017-08-23T09:26:00.887Z,3.67
2017-08-23T09:28:28.437Z,4.17
2017-08-23T09:30:55.953Z,6.07
2017-08-23T09:33:23.535Z,4.87
2017-08-23T09:35:51.083Z,4.20
2017-08-23T09:38:18.628Z,4.67
2017-08-23T09:40:46.212Z,4.70
2017-08-23T09:43:13.733Z,4.30
2017-08-23T09:45:41.248Z,3.37
2017-08-23T09:48:08.845Z,3.70
2017-08-23T09:50:36.377Z,4.03
2017-08-23T09:53:03.957Z,5.23
2017-08-23T09:55:31.496Z,4.03
2017-08-23T09:57:59.049Z,8.60
2017-08-23T10:00:26.578Z,3.17
2017-08-23T10:02:54.099Z,3.23
2017-08-23T10:05:21.680Z,4.20
2017-08-23T10:07:49.275Z,5.90
2017-08-23T10:10:16.887Z,4.80
2017-08-23T10:12:44.408Z,12.37
2017-08-23T10:15:12.045Z,4.27
2017-08-23T10:17:39.568Z,3.17
2017-08-23T10:20:07.079Z,4.00
2017-08-23T10:22:34.757Z,5.27
2017-08-23T10:25:02.332Z,3.10
2017-08-23T10:27:29.893Z,7.13
2017-08-23T10:29:57.416Z,4.00
2017-08-23T10:32:24.979Z,3.13
2017-08-23T10:34:52.512Z,3.30
2017-08-23T10:37:20.027Z,3.57
2017-08-23T10:39:47.579Z,3.27
2017-08-23T10:42:15.092Z,3.23
2017-08-23T10:44:42.663Z,4.10
2017-08-23T10:47:10.259Z,3.83
2017-08-23T10:49:37.793Z,3.37
2017-08-23T10:52:05.348Z,3.57
2017-08-23T10:54:32.864Z,2.97
2017-08-23T10:57:00.429Z,3.10
2017-08-23T10:59:27.968Z,3.50
2017-08-23T11:01:55.558Z,6.07
2017-08-23T11:04:23.092Z,3.00
2017-08-23T11:06:50.683Z,5.37
2017-08-23T11:09:18.291Z,2.83
2017-08-23T11:11:45.861Z,2.70
2017-08-23T11:14:13.400Z,5.80
2017-08-23T11:16:40.964Z,4.23
2017-08-23T11:19:08.535Z,3.67
2017-08-23T11:21:36.119Z,5.83
2017-08-23T11:24:03.641Z,5.07
2017-08-23T11:26:31.272Z,3.43
2017-08-23T11:28:58.801Z,3.40
2017-08-23T11:31:26.353Z,3.87
2017-08-23T11:33:53.903Z,3.20
2017-08-23T11:36:21.513Z,3.97
2017-08-23T11:38:49.072Z,3.60
2017-08-23T11:41:16.649Z,4.17
2017-08-23T11:43:44.241Z,3.60
2017-08-23T11:46:11.805Z,3.00
2017-08-23T11:48:39.396Z,2.90
2017-08-23T11:51:06.965Z,3.30
2017-08-23T11:53:34.505Z,3.60
2017-08-23T11:56:02.018Z,3.77
2017-08-23T11:58:29.629Z,3.40
2017-08-23T12:00:57.172Z,3.40
2017-08-23T12:03:24.773Z,3.33
2017-08-23T12:05:52.303Z,3.20
2017-08-23T12:08:19.912Z,3.30
2017-08-23T12:10:47.545Z,3.53
2017-08-23T12:13:15.067Z,3.80
2017-08-23T12:15:42.615Z,3.07
2017-08-23T12:18:10.168Z,3.00
2017-08-23T12:20:37.748Z,3.23
2017-08-23T12:23:05.332Z,3.63
2017-08-23T12:25:32.912Z,3.20
2017-08-23T12:28:00.487Z,3.33
2017-08-23T12:30:28.108Z,4.53
2017-08-23T12:32:55.665Z,4.53
2017-08-23T12:35:23.232Z,3.63
2017-08-23T12:37:50.762Z,3.50
2017-08-23T12:40:18.348Z,3.30
2017-08-23T12:42:45.878Z,4.20
2017-08-23T12:45:13.443Z,4.10
2017-08-23T12:47:40.973Z,2.93
2017-08-23T12:50:08.494Z,3.63
2017-08-23T12:52:36.068Z,3.53
2017-08-23T12:55:03.615Z,3.33
2017-08-23T12:57:31.156Z,3.03
2017-08-23T12:59:58.744Z,4.43
2017-08-23T13:02:26.265Z,3.30
2017-08-23T13:04:53.802Z,3.67
2017-08-23T13:07:21.355Z,2.77
2017-08-23T13:09:48.980Z,4.20
2017-08-23T13:12:16.519Z,3.23
2017-08-23T13:14:44.045Z,3.37
2017-08-23T13:17:11.568Z,3.93
2017-08-23T13:19:39.176Z,2.90
2017-08-23T13:22:06.736Z,2.90
2017-08-23T13:24:34.255Z,3.27
2017-08-23T13:27:01.826Z,3.60
2017-08-23T13:29:29.363Z,4.47
2017-08-23T13:31:56.888Z,3.03
2017-08-23T13:34:24.450Z,3.20
2017-08-23T13:36:51.963Z,4.83
2017-08-23T13:39:19.485Z,2.90
2017-08-23T13:41:47.046Z,3.20
2017-08-23T13:44:14.575Z,3.00
2017-08-23T13:46:42.088Z,3.33
2017-08-23T13:49:09.667Z,3.30
2017-08-23T13:51:37.245Z,3.93
2017-08-23T13:54:04.844Z,3.33
2017-08-23T13:56:32.364Z,3.03
2017-08-23T13:58:59.883Z,3.83
2017-08-23T14:01:27.446Z,2.70
2017-08-23T14:03:54.975Z,3.50
2017-08-23T14:06:22.504Z,2.70
2017-08-23T14:08:50.052Z,2.93
2017-08-23T14:11:17.600Z,3.17
2017-08-23T14:13:45.169Z,2.67
2017-08-23T14:16:12.717Z,3.00
2017-08-23T14:18:40.280Z,3.13
2017-08-23T14:21:07.856Z,3.33
2017-08-23T14:23:35.372Z,2.80
2017-08-23T14:26:03.018Z,3.50
2017-08-23T14:28:30.476Z,2.87
2017-08-23T14:30:57.995Z,3.50
2017-08-23T14:33:25.548Z,2.87
2017-08-23T14:35:53.094Z,2.70
2017-08-23T14:38:20.677Z,3.77
2017-08-23T14:40:48.208Z,2.40
2017-08-23T14:43:15.771Z,3.53
2017-08-23T14:45:43.286Z,2.97
2017-08-23T14:48:10.817Z,3.83
2017-08-23T14:50:38.548Z,3.50
2017-08-23T14:53:06.076Z,3.30
2017-08-23T14:55:33.619Z,5.07
2017-08-23T14:58:01.193Z,3.20
2017-08-23T15:00:28.712Z,2.73
2017-08-23T15:02:56.250Z,2.80
2017-08-23T15:05:23.830Z,3.10
2017-08-23T15:07:51.360Z,4.80
2017-08-23T15:10:18.928Z,3.83
2017-08-23T15:12:46.481Z,3.40
2017-08-23T15:15:14.012Z,2.73
2017-08-23T15:17:41.571Z,4.47
2017-08-23T15:20:09.123Z,3.50
2017-08-23T15:22:36.712Z,3.37
2017-08-23T15:25:04.318Z,3.27
2017-08-23T15:27:31.838Z,3.73
2017-08-23T15:29:59.364Z,3.40
2017-08-23T15:32:26.948Z,2.83
2017-08-23T15:34:54.528Z,3.87
2017-08-23T15:37:22.103Z,3.57
2017-08-23T15:39:49.671Z,3.97
2017-08-23T15:42:17.200Z,3.57
2017-08-23T15:44:44.796Z,3.13
2017-08-23T15:47:12.332Z,3.23
2017-08-23T15:49:39.888Z,4.50
2017-08-23T15:52:07.413Z,3.80
2017-08-23T15:54:34.980Z,3.23
2017-08-23T15:57:02.556Z,5.03
2017-08-23T15:59:30.317Z,3.07
2017-08-23T16:01:57.835Z,3.20
2017-08-23T16:04:25.384Z,3.30
2017-08-23T16:06:52.920Z,3.17
2017-08-23T16:09:20.445Z,3.83
2017-08-23T16:11:48.873Z,3.87
2017-08-23T16:14:17.148Z,4.70
2017-08-23T16:16:44.750Z,3.73
2017-08-23T16:19:12.308Z,3.93
2017-08-23T16:21:39.829Z,4.40
2017-08-23T16:24:07.517Z,3.37
2017-08-23T16:26:35.139Z,3.90
2017-08-23T16:29:02.696Z,3.13
2017-08-23T16:31:30.233Z,4.67
2017-08-23T16:33:57.796Z,3.90
2017-08-23T16:36:25.318Z,4.70
2017-08-23T16:38:52.959Z,4.83
2017-08-23T16:41:20.504Z,3.57
2017-08-23T16:43:48.028Z,3.20
2017-08-23T16:46:15.761Z,3.80
2017-08-23T16:48:43.276Z,4.00
2017-08-23T16:51:10.789Z,7.07
2017-08-23T16:53:38.336Z,4.47
2017-08-23T16:56:05.908Z,4.93
2017-08-23T16:58:33.453Z,4.30
2017-08-23T17:01:01.240Z,4.80
2017-08-23T17:03:28.753Z,3.40
2017-08-23T17:05:56.269Z,4.20
2017-08-23T17:08:23.816Z,6.33
2017-08-23T17:10:51.329Z,5.83
2017-08-23T17:13:18.872Z,4.13
2017-08-23T17:15:46.437Z,6.47
2017-08-23T17:18:14.048Z,3.37
2017-08-23T17:20:41.566Z,4.17
2017-08-23T17:23:09.151Z,4.03
2017-08-23T17:25:36.692Z,5.83
2017-08-23T17:28:04.215Z,4.37
2017-08-23T17:30:31.951Z,6.43
2017-08-23T17:32:59.521Z,3.67
2017-08-23T17:35:27.316Z,3.80
2017-08-23T17:37:54.875Z,4.40
2017-08-23T17:40:22.408Z,6.90
2017-08-23T17:42:50.008Z,3.87
2017-08-23T17:45:17.532Z,3.90
2017-08-23T17:47:45.073Z,5.47
2017-08-23T17:50:12.615Z,4.80
2017-08-23T17:52:41.088Z,4.10
2017-08-23T17:55:08.635Z,4.23
2017-08-23T17:57:36.198Z,3.80
2017-08-23T18:00:03.760Z,3.60
2017-08-23T18:02:31.300Z,3.90
2017-08-23T18:04:58.848Z,4.57
2017-08-23T18:07:26.355Z,3.93
2017-08-23T18:09:53.907Z,3.97
2017-08-23T18:12:21.416Z,3.70
2017-08-23T18:14:48.971Z,4.53
2017-08-23T18:17:16.489Z,4.40
2017-08-23T18:19:44.022Z,4.80
2017-08-23T18:22:11.572Z,4.63
2017-08-23T18:24:39.084Z,4.43
2017-08-23T18:27:06.635Z,4.23
2017-08-23T18:29:34.150Z,4.80
2017-08-23T18:32:01.703Z,4.40
2017-08-23T18:34:29.220Z,4.40
2017-08-23T18:36:56.728Z,4.40
2017-08-23T18:39:24.282Z,4.70
2017-08-23T18:41:51.800Z,4.40
2017-08-23T18:44:19.343Z,4.73
2017-08-23T18:46:46.855Z,4.70
2017-08-23T18:49:14.537Z,4.03
2017-08-23T18:51:42.052Z,5.50
2017-08-23T18:54:09.571Z,6.40
2017-08-23T18:56:37.168Z,5.90
2017-08-23T18:59:04.704Z,6.13
2017-08-23T19:01:32.240Z,6.40
2017-08-23T19:03:59.785Z,7.13
2017-08-23T19:06:27.389Z,6.50
2017-08-23T19:08:54.921Z,6.07
2017-08-23T19:11:22.468Z,5.10
2017-08-23T19:13:50.008Z,5.17
2017-08-23T19:16:17.549Z,4.77
2017-08-23T19:18:45.063Z,5.97
2017-08-23T19:21:12.596Z,5.27
2017-08-23T19:23:40.144Z,5.70
2017-08-23T19:26:07.652Z,5.60
2017-08-23T19:28:35.215Z,5.40
2017-08-23T19:31:02.731Z,6.03
2017-08-23T19:33:30.240Z,5.70
2017-08-23T19:35:57.792Z,5.37
2017-08-23T19:38:25.313Z,5.20
2017-08-23T19:40:52.854Z,7.13
2017-08-23T19:43:20.400Z,5.33
2017-08-23T19:45:47.905Z,5.07
2017-08-23T19:48:15.456Z,5.60
2017-08-23T19:50:42.964Z,6.60
2017-08-23T19:53:10.515Z,5.03
2017-08-23T19:55:38.047Z,5.50
2017-08-23T19:58:05.564Z,4.43
2017-08-23T20:00:33.105Z,5.30
2017-08-23T20:03:00.616Z,6.67
2017-08-23T20:05:28.176Z,5.97
2017-08-23T20:07:55.697Z,7.30
2017-08-23T20:10:23.241Z,5.43
2017-08-23T20:12:50.789Z,5.17
2017-08-23T20:15:18.373Z,5.80
2017-08-23T20:17:45.901Z,6.33
2017-08-23T20:20:13.415Z,6.33
2017-08-23T20:22:40.964Z,6.50
2017-08-23T20:25:08.485Z,6.20
2017-08-23T20:27:36.056Z,6.50
2017-08-23T20:30:03.564Z,6.73
2017-08-23T20:32:31.072Z,6.80
2017-08-23T20:34:58.672Z,6.60
2017-08-23T20:37:26.239Z,6.73
2017-08-23T20:39:53.788Z,7.10
2017-08-23T20:42:21.319Z,7.30
2017-08-23T20:44:48.880Z,6.90
2017-08-23T20:47:16.403Z,8.13
2017-08-23T20:49:43.919Z,7.53
2017-08-23T20:52:11.477Z,7.47
2017-08-23T20:54:38.988Z,10.47
2017-08-23T20:57:06.499Z,7.63
2017-08-23T20:59:34.056Z,7.17
2017-08-23T21:02:01.576Z,7.33
2017-08-23T21:04:29.099Z,7.03
2017-08-23T21:06:56.696Z,7.50
2017-08-23T21:09:24.240Z,8.37
2017-08-23T21:11:51.786Z,8.33
2017-08-23T21:14:19.304Z,8.10
2017-08-23T21:16:46.857Z,8.00
2017-08-23T21:19:14.423Z,10.47
2017-08-23T21:21:41.940Z,7.90
2017-08-23T21:24:09.496Z,8.30
2017-08-23T21:26:37.052Z,8.37
2017-08-23T21:29:04.572Z,8.10
2017-08-23T21:31:32.108Z,8.10
2017-08-23T21:33:59.668Z,7.80
2017-08-23T21:36:27.216Z,8.13
2017-08-23T21:38:54.764Z,7.33
2017-08-23T21:41:22.275Z,8.70
2017-08-23T21:43:49.816Z,8.03
2017-08-23T21:46:17.331Z,9.67
2017-08-23T21:48:44.875Z,7.77
2017-08-23T21:51:12.452Z,8.43
2017-08-23T21:53:39.968Z,8.67
2017-08-23T21:56:07.507Z,12.70
2017-08-23T21:58:35.086Z,8.50
2017-08-23T22:01:02.612Z,8.47
2017-08-23T22:03:30.126Z,8.27
2017-08-23T22:05:57.763Z,7.63
2017-08-23T22:08:25.290Z,7.47
2017-08-23T22:10:52.808Z,8.20
2017-08-23T22:13:20.397Z,8.33
2017-08-23T22:15:47.907Z,7.80
2017-08-23T22:18:15.424Z,8.20
2017-08-23T22:20:42.976Z,8.17
2017-08-23T22:23:10.489Z,7.40
2017-08-23T22:25:38.042Z,8.00
2017-08-23T22:28:05.599Z,8.37
2017-08-23T22:30:33.117Z,8.13
2017-08-23T22:33:00.631Z,7.90
2017-08-23T22:35:28.183Z,7.70
2017-08-23T22:37:55.751Z,7.80
2017-08-23T22:40:23.307Z,7.37
2017-08-23T22:42:50.823Z,7.63
2017-08-23T22:45:18.465Z,8.33
2017-08-23T22:47:46.355Z,7.87
2017-08-23T22:50:13.860Z,8.47
2017-08-23T22:52:41.440Z,8.40
2017-08-23T22:55:08.953Z,7.87
2017-08-23T22:57:36.469Z,8.70
2017-08-23T23:00:04.082Z,7.20
2017-08-23T23:02:31.595Z,7.67
2017-08-23T23:04:59.108Z,8.27
2017-08-23T23:07:26.655Z,8.50
2017-08-23T23:09:54.170Z,8.70
2017-08-23T23:12:21.728Z,8.00
2017-08-23T23:14:49.232Z,8.30
2017-08-23T23:17:16.745Z,8.00
2017-08-23T23:19:44.313Z,7.50
2017-08-23T23:22:11.899Z,7.93
2017-08-23T23:24:39.411Z,8.37
2017-08-23T23:27:06.933Z,9.43
2017-08-23T23:29:34.477Z,8.00
2017-08-23T23:32:01.988Z,8.33
2017-08-23T23:34:29.568Z,7.90
2017-08-23T23:36:57.088Z,8.67
2017-08-23T23:39:24.602Z,8.70
2017-08-23T23:41:52.169Z,8.00
2017-08-23T23:44:19.680Z,7.73
2017-08-23T23:46:47.289Z,7.57
2017-08-23T23:49:14.988Z,7.80
2017-08-23T23:51:42.752Z,7.70
2017-08-23T23:54:10.279Z,7.93
2017-08-23T23:56:37.838Z,7.90
2017-08-23T23:59:05.367Z,6.80
